ADDS METAR Data INFO
IDs: Format: Raw Decoded Include TAF

Data at: 1805 UTC 18 Feb 2018

KD55 180335Z AUTO 23005KT 10SM OVC028 M12/M15 A2990 RMK AO2
KD55 180315Z AUTO 24005KT 10SM OVC028 M12/M15 A2990 RMK AO2
KD55 180255Z AUTO 24005KT 10SM OVC028 M12/M16 A2990 RMK AO2
KD55 180235Z AUTO 25005KT 10SM FEW022 OVC029 M12/M15 A2990 RMK AO2
KD55 180215Z AUTO 27005KT 10SM OVC030 M12/M16 A2990 RMK AO2
KD55 180155Z AUTO 28006KT 10SM OVC031 M12/M15 A2990 RMK AO2
KD55 180135Z AUTO 26006KT 10SM OVC032 M13/M16 A2990 RMK AO2
KD55 180115Z AUTO 28005KT 10SM FEW023 OVC032 M12/M16 A2991 RMK AO2
KD55 180055Z AUTO 28006KT 10SM FEW022 OVC030 M12/M16 A2991 RMK AO2
KD55 180035Z AUTO 28006KT 10SM OVC027 M12/M16 A2990 RMK AO2
KD55 180015Z AUTO 30008KT 10SM OVC026 M12/M16 A2989 RMK AO2
KD55 172355Z AUTO 30008KT 10SM BKN028 M12/M16 A2988 RMK AO2
KD55 172335Z AUTO 31009G15KT 10SM CLR M12/M16 A2987 RMK AO2
KD55 172315Z AUTO 32011G17KT 10SM CLR M11/M16 A2986 RMK AO2
KD55 172255Z AUTO 31014KT 10SM SCT025 SCT034 M11/M16 A2986 RMK AO2
KD55 172235Z AUTO 31015G22KT 10SM BKN025 OVC033 M11/M16 A2987 RMK AO2
KD55 172215Z AUTO 32017KT 10SM BKN024 BKN030 BKN035 M10/M15 A2986 RMK AO2
KD55 172155Z AUTO 31019G26KT 10SM FEW016 SCT029 OVC035 M09/M14 A2986 RMK AO2
KD55 172135Z AUTO 31022G31KT 5SM HZ SCT015 BKN019 OVC033 M10/M14 A2987 RMK AO2
KD55 172115Z AUTO 31025G33KT 5SM -SN FEW008 BKN015 BKN020 M09/M13 A2986 RMK AO2
KD55 172055Z AUTO 31024G34KT 10SM CLR M08/M13 A2985 RMK AO2
KD55 172035Z AUTO 30023G30KT 10SM FEW029 FEW037 M07/M12 A2985 RMK AO2
KD55 172015Z AUTO 29021KT 10SM FEW030 BKN038 M07/M13 A2985 RMK AO2
KD55 171955Z AUTO 26019KT 10SM SCT037 M07/M13 A2985 RMK AO2
KD55 171935Z AUTO 25017KT 10SM CLR M07/M14 A2985 RMK AO2
KD55 171915Z AUTO 25015KT 10SM CLR M07/M14 A2986 RMK AO2
KD55 171855Z AUTO 28013KT 10SM CLR M08/M16 A2986 RMK AO2
KD55 171835Z AUTO 29015KT 10SM CLR M08/M17 A2985 RMK AO2
KD55 171815Z AUTO 29014KT 10SM CLR M09/M16 A2986 RMK AO2
KD55 171755Z AUTO 29014KT 10SM CLR M09/M16 A2986 RMK AO2
KD55 171735Z AUTO 30015G20KT 10SM CLR M10/M16 A2987 RMK AO2
KD55 171715Z AUTO 30016KT 10SM CLR M10/M16 A2986 RMK AO2
KD55 171655Z AUTO 30017KT 10SM CLR M11/M16 A2985 RMK AO2
KD55 171635Z AUTO 30018KT 10SM CLR M11/M15 A2984 RMK AO2
KD55 171615Z AUTO 30016KT 10SM CLR M12/M15 A2984 RMK AO2
KD55 171555Z AUTO 30015G22KT 10SM CLR M12/M15 A2983 RMK AO2
KD55 171535Z AUTO 30017KT 10SM CLR M13/M15 A2982 RMK AO2
KD55 171515Z AUTO 29016KT 10SM CLR M13/M15 A2982 RMK AO2
KD55 171455Z AUTO 29017KT 10SM CLR M13/M14 A2981 RMK AO2
KD55 171435Z AUTO 29016KT 10SM CLR M14/M15 A2980 RMK AO2
KD55 171415Z AUTO 29016KT 10SM CLR M14/M14 A2979 RMK AO2
KD55 171355Z AUTO 29014KT 10SM CLR M14/M14 A2979 RMK AO2
KD55 171335Z AUTO 29012KT 10SM CLR M14/M14 A2978 RMK AO2
KD55 171315Z AUTO 29013KT 10SM CLR M14/M14 A2977 RMK AO2
KD55 171255Z AUTO 28013KT 10SM CLR M13/M13 A2976 RMK AO2
KD55 171235Z AUTO 29012KT 10SM CLR M14/M15 A2975 RMK AO2
KD55 171215Z AUTO 27012KT 10SM FEW015 M14/M14 A2975 RMK AO2
KD55 171155Z AUTO 27010KT 10SM BKN015 M13/M13 A2974 RMK AO2
KD55 171135Z AUTO 29009KT 10SM -SN OVC017 M13/M13 A2973 RMK AO2
KD55 171115Z AUTO 28010KT 10SM -SN OVC018 M14/M14 A2973 RMK AO2
KD55 171055Z AUTO 27011KT 10SM SCT019 M15/M15 A2972 RMK AO2
KD55 171035Z AUTO 26009KT 10SM CLR M16/M16 A2972 RMK AO2
KD55 171015Z AUTO 27011KT 10SM CLR M15/M16 A2972 RMK AO2
KD55 170955Z AUTO 27008KT 10SM FEW020 FEW032 M16/M16 A2971 RMK AO2
KD55 170935Z AUTO 25007KT 10SM BKN032 M15/M16 A2971 RMK AO2
KD55 170915Z AUTO 24008KT 10SM BKN033 M15/M15 A2971 RMK AO2
KD55 170855Z AUTO 24008KT 10SM CLR M15/M16 A2971 RMK AO2
KD55 170835Z AUTO 25010KT 10SM CLR M15/M15 A2971 RMK AO2
KD55 170815Z AUTO 24009KT 10SM FEW020 BKN028 M13/M13 A2970 RMK AO2
KD55 170755Z AUTO 26011KT 10SM SCT028 M13/M14 A2970 RMK AO2
KD55 170735Z AUTO 28009KT 10SM CLR M13/M13 A2970 RMK AO2
KD55 170715Z AUTO 28011KT 10SM CLR M13/M13 A2970 RMK AO2
KD55 170655Z AUTO 28009KT 10SM CLR M13/M14 A2970 RMK AO2
KD55 170635Z AUTO 28010KT 10SM CLR M12/M13 A2970 RMK AO2
KD55 170615Z AUTO 28011KT 10SM CLR M12/M12 A2969 RMK AO2